Time;durP1;ratioP1;P1;durP2;ratioP2;P2;SDS_P1;SDS_P2;PMS_P1;PMS_P2;Temp;Humidity;BMP_temperature;BMP_pressure;BME280_temperature;BME280_humidity;BME280_pressure;Samples;Min_cycle;Max_cycle;Signal;HPM_P1;HPM_P2
2021/07/27 00:00:49;;;;;;;9.17;3.77;;;17.70;99.90;;;;;;5072641;28;20937;-52
2021/07/27 00:03:16;;;;;;;5.40;3.60;;;17.60;99.90;;;;;;5072192;28;20488;-52
2021/07/27 00:05:43;;;;;;;3.90;3.50;;;17.60;99.90;;;;;;5086744;28;20446;-54
2021/07/27 00:08:10;;;;;;;3.90;3.40;;;17.70;99.90;;;;;;5091598;28;20499;-52
2021/07/27 00:10:38;;;;;;;4.03;3.60;;;17.60;99.90;;;;;;5072734;28;20463;-53
2021/07/27 00:13:07;;;;;;;3.30;3.00;;;17.60;99.90;;;;;;5072315;28;20475;-52
2021/07/27 00:15:34;;;;;;;4.03;3.17;;;17.50;99.90;;;;;;5072391;28;20496;-53
2021/07/27 00:18:01;;;;;;;3.97;3.33;;;17.50;99.90;;;;;;5088480;28;20500;-52
2021/07/27 00:20:28;;;;;;;3.43;3.13;;;17.50;99.90;;;;;;5090097;28;20449;-54
2021/07/27 00:22:55;;;;;;;3.60;3.30;;;17.40;99.90;;;;;;5092112;28;20498;-52
2021/07/27 00:25:22;;;;;;;4.17;2.87;;;17.40;99.90;;;;;;5092215;28;20882;-53
2021/07/27 00:27:49;;;;;;;3.40;3.10;;;17.40;99.90;;;;;;5092452;28;20947;-52
2021/07/27 00:30:17;;;;;;;4.33;3.03;;;17.30;99.90;;;;;;5073912;28;20447;-53
2021/07/27 00:32:45;;;;;;;3.67;3.00;;;17.40;99.90;;;;;;5071910;28;20512;-52
2021/07/27 00:35:14;;;;;;;4.43;3.10;;;17.30;99.90;;;;;;5071977;28;20499;-54
2021/07/27 00:37:44;;;;;;;6.97;3.07;;;17.40;99.90;;;;;;5072229;28;20912;-52
2021/07/27 00:40:12;;;;;;;3.63;3.20;;;17.30;99.90;;;;;;5089732;28;20474;-52
2021/07/27 00:42:43;;;;;;;3.10;2.83;;;17.20;99.90;;;;;;5092086;28;20461;-52
2021/07/27 00:45:11;;;;;;;4.70;3.20;;;17.20;99.90;;;;;;5092116;28;20499;-52
2021/07/27 00:47:40;;;;;;;3.60;2.63;;;17.10;99.90;;;;;;5091763;28;20618;-53
2021/07/27 00:50:10;;;;;;;5.13;3.40;;;17.10;99.90;;;;;;5091051;28;20446;-52
2021/07/27 00:52:39;;;;;;;5.23;3.30;;;17.10;99.90;;;;;;5091596;28;21042;-53
2021/07/27 00:55:07;;;;;;;4.80;3.70;;;17.10;99.90;;;;;;5092026;28;20531;-52
2021/07/27 00:57:34;;;;;;;4.07;3.50;;;17.10;99.90;;;;;;5092161;28;20441;-52
2021/07/27 01:00:01;;;;;;;6.33;4.37;;;17.10;99.90;;;;;;5076240;28;20451;-52
2021/07/27 01:02:30;;;;;;;5.40;4.27;;;17.10;99.90;;;;;;5086285;28;20462;-53
2021/07/27 01:04:59;;;;;;;5.20;4.00;;;17.10;99.90;;;;;;5075841;28;20483;-53
2021/07/27 01:07:26;;;;;;;6.37;4.00;;;17.10;99.90;;;;;;5071668;28;20451;-52
2021/07/27 01:09:52;;;;;;;5.23;3.67;;;17.00;99.90;;;;;;5085244;28;20456;-52
2021/07/27 01:12:19;;;;;;;4.10;3.67;;;17.00;99.90;;;;;;5091569;28;20465;-53
2021/07/27 01:14:46;;;;;;;4.30;3.57;;;17.10;99.90;;;;;;5091157;28;20442;-52
2021/07/27 01:17:13;;;;;;;8.10;3.77;;;17.00;99.90;;;;;;5091753;28;20445;-53
2021/07/27 01:19:50;;;;;;;5.30;3.50;;;16.90;99.90;;;;;;5080011;28;20512;-52
2021/07/27 01:39:17;;;;;;;4.80;4.27;;;16.70;99.90;;;;;;5087607;28;20466;-53
2021/07/27 01:44:28;;;;;;;6.47;4.60;;;16.70;99.90;;;;;;5071557;28;20494;-52
2021/07/27 01:46:56;;;;;;;5.33;4.57;;;16.70;99.90;;;;;;5072585;28;20543;-52
2021/07/27 01:49:23;;;;;;;4.90;4.23;;;16.70;99.90;;;;;;5086924;28;20445;-52
2021/07/27 01:51:52;;;;;;;5.57;4.50;;;16.80;99.90;;;;;;5090547;28;20511;-55
2021/07/27 01:54:28;;;;;;;6.03;5.23;;;16.80;99.90;;;;;;5091384;28;20441;-51
2021/07/27 01:56:56;;;;;;;5.67;4.97;;;16.60;99.90;;;;;;5091049;28;20457;-52
2021/07/27 01:59:23;;;;;;;5.30;3.97;;;16.70;99.90;;;;;;5091555;28;20495;-51
2021/07/27 02:01:50;;;;;;;5.40;4.30;;;16.70;99.90;;;;;;5091643;28;20574;-54
2021/07/27 02:04:17;;;;;;;4.97;3.87;;;16.70;99.90;;;;;;5077372;28;20478;-51
2021/07/27 02:06:44;;;;;;;4.97;4.27;;;16.80;99.90;;;;;;5076987;28;20944;-51
2021/07/27 02:09:11;;;;;;;4.50;3.83;;;16.80;99.90;;;;;;5094768;28;20454;-52
2021/07/27 02:11:42;;;;;;;8.03;4.13;;;16.80;99.90;;;;;;5095232;28;20553;-52
2021/07/27 02:14:12;;;;;;;5.23;4.63;;;16.80;99.90;;;;;;5095091;28;20446;-53
2021/07/27 02:16:39;;;;;;;5.40;4.70;;;16.70;99.90;;;;;;5087428;28;20473;-53
2021/07/27 02:19:06;;;;;;;5.30;4.10;;;16.80;99.90;;;;;;5095042;28;20445;-52
2021/07/27 02:21:33;;;;;;;4.77;4.30;;;16.80;99.90;;;;;;5094173;28;21035;-52
2021/07/27 02:24:01;;;;;;;6.10;4.30;;;16.70;99.90;;;;;;5094850;28;20485;-51
2021/07/27 02:26:28;;;;;;;5.80;4.20;;;16.70;99.90;;;;;;5088766;28;20529;-52
2021/07/27 02:28:56;;;;;;;5.53;4.37;;;16.60;99.90;;;;;;5094522;28;20458;-52
2021/07/27 02:31:29;;;;;;;6.83;4.90;;;16.50;99.90;;;;;;5076845;28;20829;-52
2021/07/27 02:33:56;;;;;;;6.60;4.40;;;16.50;99.90;;;;;;5074217;28;20951;-52
2021/07/27 02:36:23;;;;;;;6.10;4.57;;;16.40;99.90;;;;;;5074851;28;20499;-52
2021/07/27 02:38:50;;;;;;;6.57;4.67;;;16.30;99.90;;;;;;5094332;28;20454;-52
2021/07/27 02:41:31;;;;;;;5.83;5.03;;;16.30;99.90;;;;;;5094597;28;20465;-54
2021/07/27 02:44:00;;;;;;;5.40;4.10;;;16.30;99.90;;;;;;5094326;28;20483;-52
2021/07/27 02:46:27;;;;;;;4.73;4.03;;;16.30;99.90;;;;;;5093034;28;20442;-53
2021/07/27 02:49:03;;;;;;;4.73;4.10;;;16.20;99.90;;;;;;5074037;28;20504;-53
2021/07/27 02:51:30;;;;;;;6.60;5.00;;;16.30;99.90;;;;;;5073997;28;20557;-52
2021/07/27 02:53:57;;;;;;;5.37;4.60;;;16.20;99.90;;;;;;5074013;28;20442;-52
2021/07/27 02:56:25;;;;;;;5.13;4.53;;;16.20;99.90;;;;;;5092122;28;20449;-52
2021/07/27 02:58:52;;;;;;;5.33;4.23;;;16.20;99.90;;;;;;5073922;28;20500;-52
2021/07/27 03:01:20;;;;;;;5.90;4.20;;;16.20;99.90;;;;;;5074080;28;20463;-52
2021/07/27 03:03:49;;;;;;;5.03;4.00;;;16.20;99.90;;;;;;5073694;28;20482;-52
2021/07/27 03:06:18;;;;;;;7.00;4.27;;;16.20;99.90;;;;;;5088739;28;21025;-53
2021/07/27 03:09:02;;;;;;;8.13;4.10;;;16.20;99.90;;;;;;5092490;28;20827;-52
2021/07/27 03:11:30;;;;;;;5.27;4.77;;;16.30;99.90;;;;;;5093779;28;20476;-52
2021/07/27 03:13:57;;;;;;;5.70;4.57;;;16.20;99.90;;;;;;5093448;28;20514;-51
2021/07/27 03:16:26;;;;;;;5.60;3.70;;;16.30;99.90;;;;;;5074970;28;20874;-53
2021/07/27 03:18:56;;;;;;;5.07;3.90;;;16.30;99.90;;;;;;5077364;28;20450;-52
2021/07/27 03:21:25;;;;;;;5.77;4.27;;;16.30;99.90;;;;;;5085224;28;20478;-53
2021/07/27 03:23:52;;;;;;;4.50;4.00;;;16.30;99.90;;;;;;5090774;28;20557;-52
2021/07/27 03:26:21;;;;;;;4.97;4.07;;;16.30;99.90;;;;;;5082205;28;20495;-52
2021/07/27 03:28:49;;;;;;;5.07;3.93;;;16.30;99.90;;;;;;5093109;28;20450;-51
2021/07/27 03:31:16;;;;;;;5.70;4.40;;;16.20;99.90;;;;;;5093686;28;20462;-52
2021/07/27 03:33:45;;;;;;;7.90;4.50;;;16.20;99.90;;;;;;5093249;28;20935;-52
2021/07/27 03:36:12;;;;;;;6.50;4.90;;;16.20;99.90;;;;;;5093479;28;20441;-51
2021/07/27 03:38:39;;;;;;;6.17;4.77;;;16.20;99.90;;;;;;5085511;28;20453;-52
2021/07/27 03:41:07;;;;;;;7.03;4.37;;;16.20;99.90;;;;;;5093479;28;20879;-52
2021/07/27 03:43:34;;;;;;;5.03;3.70;;;16.20;99.90;;;;;;5093168;28;20715;-52
2021/07/27 03:46:02;;;;;;;4.67;4.03;;;16.20;99.90;;;;;;5093406;28;20457;-52
2021/07/27 03:48:28;;;;;;;7.40;4.63;;;16.20;99.90;;;;;;5076513;28;20455;-51
2021/07/27 03:50:57;;;;;;;4.90;3.90;;;16.20;99.90;;;;;;5072910;28;21010;-52
2021/07/27 03:53:24;;;;;;;4.90;4.37;;;16.10;99.90;;;;;;5072640;28;20446;-51
2021/07/27 03:55:52;;;;;;;6.90;4.87;;;16.10;99.90;;;;;;5072979;28;20438;-52
2021/07/27 03:58:19;;;;;;;8.50;4.20;;;16.00;99.90;;;;;;5087573;28;20580;-52
2021/07/27 04:00:46;;;;;;;4.80;3.93;;;16.00;99.90;;;;;;5092218;28;20445;-51
2021/07/27 04:03:13;;;;;;;5.90;4.73;;;16.00;99.90;;;;;;5092678;28;20511;-53
2021/07/27 04:05:43;;;;;;;4.93;4.43;;;16.10;99.90;;;;;;5092681;28;20935;-52
2021/07/27 04:08:11;;;;;;;10.47;5.10;;;16.10;99.90;;;;;;5078555;28;20451;-53
2021/07/27 04:10:39;;;;;;;5.40;4.43;;;16.10;99.90;;;;;;5075460;28;20443;-51
2021/07/27 04:13:06;;;;;;;4.67;4.00;;;16.10;99.90;;;;;;5085094;28;20515;-52
2021/07/27 04:15:43;;;;;;;6.17;4.50;;;16.10;99.90;;;;;;5092949;28;20506;-51
2021/07/27 04:18:10;;;;;;;6.63;4.67;;;16.10;99.90;;;;;;5083448;28;20442;-53
2021/07/27 04:20:37;;;;;;;5.63;4.40;;;16.00;99.90;;;;;;5083146;28;20454;-52
2021/07/27 04:23:05;;;;;;;6.90;4.80;;;16.00;99.90;;;;;;5080834;28;20992;-52
2021/07/27 04:25:33;;;;;;;5.30;4.67;;;16.00;99.90;;;;;;5082668;28;20483;-52
2021/07/27 04:28:00;;;;;;;8.07;4.70;;;16.00;99.90;;;;;;5085073;28;20450;-53
2021/07/27 04:30:28;;;;;;;6.37;4.50;;;16.00;99.90;;;;;;5076709;28;20454;-52
2021/07/27 04:32:55;;;;;;;5.20;4.30;;;16.00;99.90;;;;;;5071667;28;20467;-51
2021/07/27 04:35:22;;;;;;;7.50;4.10;;;16.10;99.90;;;;;;5079903;28;20802;-53
2021/07/27 04:37:51;;;;;;;5.80;4.70;;;16.20;99.90;;;;;;5092464;28;20495;-52
2021/07/27 04:40:19;;;;;;;6.23;4.30;;;16.30;99.90;;;;;;5092409;28;20552;-53
2021/07/27 04:42:47;;;;;;;8.10;4.90;;;16.30;99.90;;;;;;5089628;28;20498;-53
2021/07/27 04:45:14;;;;;;;6.50;5.07;;;16.40;99.90;;;;;;5091317;28;20547;-53
2021/07/27 04:47:41;;;;;;;7.30;5.10;;;16.40;99.90;;;;;;5092126;28;20450;-52
2021/07/27 04:50:09;;;;;;;5.50;4.23;;;16.50;99.90;;;;;;5076890;28;20498;-53
2021/07/27 04:52:37;;;;;;;6.47;5.13;;;16.60;99.90;;;;;;5102085;22;21087;-57
2021/07/27 04:55:05;;;;;;;6.03;4.23;;;16.80;99.90;;;;;;5082791;28;20469;-57
2021/07/27 04:57:33;;;;;;;4.70;4.13;;;17.10;99.90;;;;;;5071877;28;20540;-57
2021/07/27 05:00:02;;;;;;;5.47;4.37;;;17.60;99.90;;;;;;5089822;28;20500;-58
2021/07/27 05:02:29;;;;;;;5.57;3.83;;;18.20;99.90;;;;;;5079414;28;20470;-58
2021/07/27 05:04:56;;;;;;;5.87;4.57;;;19.00;99.90;;;;;;5071148;28;20532;-58
2021/07/27 05:07:23;;;;;;;4.80;3.97;;;19.80;99.90;;;;;;5077581;28;20447;-58
2021/07/27 05:09:50;;;;;;;4.60;4.00;;;20.60;99.90;;;;;;5068675;28;20505;-58
2021/07/27 05:12:17;;;;;;;5.20;3.30;;;21.20;99.90;;;;;;5051416;28;20472;-57
2021/07/27 05:14:44;;;;;;;5.30;3.93;;;21.60;99.90;;;;;;5069218;28;20495;-58
2021/07/27 05:17:12;;;;;;;6.40;3.80;;;21.90;99.90;;;;;;5071850;28;21006;-58
2021/07/27 05:19:51;;;;;;;4.10;3.70;;;22.40;99.90;;;;;;5071774;28;20446;-58
2021/07/27 05:22:18;;;;;;;4.30;3.90;;;22.60;99.90;;;;;;5066573;28;20545;-58
2021/07/27 05:24:45;;;;;;;4.03;3.63;;;22.80;99.90;;;;;;5071185;28;20475;-58
2021/07/27 05:27:12;;;;;;;5.27;3.63;;;23.10;99.90;;;;;;5071561;28;20455;-58
2021/07/27 05:29:38;;;;;;;6.50;3.67;;;23.20;99.90;;;;;;5070868;28;20508;-57
2021/07/27 05:32:07;;;;;;;6.40;4.30;;;23.50;99.90;;;;;;5072123;28;20470;-58
2021/07/27 05:34:37;;;;;;;5.40;4.73;;;24.00;99.90;;;;;;5072022;28;21013;-58
2021/07/27 05:37:04;;;;;;;5.80;4.13;;;24.30;99.90;;;;;;5090507;28;20446;-58
2021/07/27 05:39:31;;;;;;;4.57;4.17;;;24.40;99.90;;;;;;5090816;28;20449;-57
2021/07/27 05:41:58;;;;;;;4.07;3.67;;;24.70;99.90;;;;;;5086229;28;20454;-58
2021/07/27 05:44:26;;;;;;;4.27;3.87;;;24.80;99.90;;;;;;5088175;28;20454;-58
2021/07/27 05:46:54;;;;;;;4.30;3.70;;;24.90;99.90;;;;;;5076566;28;20442;-58
2021/07/27 05:49:21;;;;;;;6.03;3.30;;;25.10;99.90;;;;;;5076346;28;20897;-58
2021/07/27 05:51:50;;;;;;;3.90;3.37;;;25.20;99.90;;;;;;5075046;28;20525;-57
2021/07/27 05:54:18;;;;;;;5.50;3.47;;;25.20;99.90;;;;;;5073771;28;20454;-57
2021/07/27 05:56:47;;;;;;;3.97;3.57;;;25.10;99.90;;;;;;5061182;28;21109;-57
2021/07/27 05:59:14;;;;;;;4.43;3.40;;;25.20;99.90;;;;;;5054431;28;20509;-58
2021/07/27 06:01:41;;;;;;;5.03;3.80;;;25.20;99.90;;;;;;5065065;28;20454;-58
2021/07/27 06:04:08;;;;;;;4.83;3.97;;;25.40;99.90;;;;;;5074090;28;20500;-58
2021/07/27 06:06:35;;;;;;;7.33;4.50;;;25.60;99.90;;;;;;5086867;28;20477;-58
2021/07/27 06:09:06;;;;;;;4.27;3.90;;;25.90;99.90;;;;;;5094835;28;20514;-58
2021/07/27 06:11:33;;;;;;;5.33;4.00;;;25.80;99.90;;;;;;5085255;28;20459;-57
2021/07/27 06:14:03;;;;;;;4.23;3.87;;;25.90;99.90;;;;;;5073772;28;20475;-58
2021/07/27 06:16:30;;;;;;;5.07;4.17;;;25.60;99.90;;;;;;5074021;28;20446;-58
2021/07/27 06:18:57;;;;;;;4.23;3.83;;;25.30;99.90;;;;;;5073948;28;20496;-58
2021/07/27 06:21:24;;;;;;;3.93;3.53;;;25.10;99.90;;;;;;5073678;28;20504;-58
2021/07/27 06:23:51;;;;;;;4.03;3.63;;;25.00;99.90;;;;;;5073995;28;20528;-58
2021/07/27 06:26:20;;;;;;;5.10;3.50;;;24.90;99.90;;;;;;5074671;28;20482;-58
2021/07/27 06:28:47;;;;;;;4.17;3.77;;;24.90;99.90;;;;;;5074408;28;20929;-58
2021/07/27 06:31:14;;;;;;;4.00;3.60;;;25.00;99.90;;;;;;5074251;28;20451;-59
2021/07/27 06:33:41;;;;;;;6.63;4.20;;;25.00;99.90;;;;;;5074077;28;20478;-58
2021/07/27 06:36:09;;;;;;;4.07;3.67;;;25.00;99.90;;;;;;5074265;28;21117;-59
2021/07/27 06:38:36;;;;;;;4.50;3.30;;;25.40;99.90;;;;;;5073975;28;20500;-59
2021/07/27 06:41:06;;;;;;;3.67;3.37;;;26.20;99.90;;;;;;5073968;28;20463;-59
2021/07/27 06:43:35;;;;;;;4.17;3.80;;;26.80;99.90;;;;;;5073995;28;20523;-59
2021/07/27 06:46:03;;;;;;;4.07;3.67;;;26.80;99.90;;;;;;5074131;28;20531;-59
2021/07/27 06:48:30;;;;;;;3.93;3.50;;;26.80;99.90;;;;;;5073140;28;20928;-58
2021/07/27 06:50:57;;;;;;;3.60;3.30;;;27.00;99.90;;;;;;5072357;28;20955;-58
2021/07/27 06:53:26;;;;;;;4.63;3.27;;;26.80;99.90;;;;;;5072780;28;20482;-58
2021/07/27 06:55:53;;;;;;;4.17;3.30;;;26.50;99.90;;;;;;5072294;28;20461;-58
2021/07/27 06:58:20;;;;;;;3.83;3.43;;;26.60;99.90;;;;;;5071573;28;20471;-60
2021/07/27 07:00:48;;;;;;;3.97;3.10;;;26.60;99.90;;;;;;5073621;28;20451;-59
2021/07/27 07:03:15;;;;;;;2.67;2.50;;;26.80;99.90;;;;;;5066007;28;20622;-59
2021/07/27 07:05:42;;;;;;;4.13;3.30;;;26.50;99.90;;;;;;5070629;28;20532;-59
2021/07/27 07:08:09;;;;;;;5.33;3.80;;;27.00;99.90;;;;;;5073778;28;20443;-58
2021/07/27 07:10:36;;;;;;;3.63;3.10;;;27.30;99.90;;;;;;5073591;28;20439;-58
2021/07/27 07:13:03;;;;;;;3.63;3.33;;;27.40;99.90;;;;;;5073378;28;20467;-58
2021/07/27 07:15:30;;;;;;;5.07;3.50;;;27.80;99.90;;;;;;5073240;28;20450;-59
2021/07/27 07:17:59;;;;;;;3.70;3.17;;;28.00;99.90;;;;;;5073515;28;20454;-59
2021/07/27 07:20:27;;;;;;;3.70;3.40;;;28.20;99.90;;;;;;5073587;28;20504;-59
2021/07/27 07:22:54;;;;;;;4.17;3.40;;;28.10;99.90;;;;;;5072369;28;20470;-59
2021/07/27 07:25:21;;;;;;;5.20;3.60;;;28.10;99.90;;;;;;5072487;28;21080;-59
2021/07/27 07:27:48;;;;;;;3.00;2.80;;;28.00;99.90;;;;;;5073097;28;20450;-59
2021/07/27 07:30:15;;;;;;;4.40;3.50;;;27.70;99.90;;;;;;5071260;28;20446;-59
2021/07/27 07:32:42;;;;;;;4.10;3.50;;;27.80;99.90;;;;;;5067818;28;20471;-60
2021/07/27 07:35:11;;;;;;;4.30;3.90;;;27.80;99.90;;;;;;5073210;28;20435;-60
2021/07/27 07:37:38;;;;;;;8.53;4.00;;;27.40;99.90;;;;;;5072752;28;20879;-60
2021/07/27 07:40:07;;;;;;;4.13;3.73;;;27.30;99.90;;;;;;5072983;28;20507;-60
2021/07/27 07:42:34;;;;;;;4.60;3.40;;;27.50;99.90;;;;;;5072767;28;20506;-60
2021/07/27 07:45:01;;;;;;;5.50;3.70;;;27.40;99.90;;;;;;5073088;28;20454;-60
2021/07/27 07:47:28;;;;;;;3.60;3.30;;;27.20;99.90;;;;;;5073000;28;20451;-60
2021/07/27 07:49:58;;;;;;;3.93;3.33;;;27.00;99.90;;;;;;5072777;28;20925;-60
2021/07/27 07:52:26;;;;;;;6.33;3.53;;;27.20;99.90;;;;;;5071948;28;20483;-60
2021/07/27 07:54:53;;;;;;;5.73;3.70;;;27.60;99.90;;;;;;5072446;28;20805;-60
2021/07/27 07:57:20;;;;;;;4.10;3.70;;;27.20;99.90;;;;;;5070726;28;20874;-60
2021/07/27 07:59:47;;;;;;;3.77;3.20;;;27.50;99.90;;;;;;5070982;28;20450;-60
2021/07/27 08:02:14;;;;;;;3.67;3.10;;;27.00;99.90;;;;;;5070685;28;20467;-60
2021/07/27 08:04:41;;;;;;;4.97;3.43;;;26.80;99.90;;;;;;5069628;28;20446;-59
2021/07/27 08:07:08;;;;;;;4.17;3.77;;;26.20;99.90;;;;;;5071521;28;20478;-60
2021/07/27 08:09:37;;;;;;;7.30;3.40;;;26.00;99.90;;;;;;5071759;28;20447;-59
2021/07/27 08:12:04;;;;;;;3.50;3.20;;;25.60;99.90;;;;;;5080126;28;20458;-59
2021/07/27 08:14:31;;;;;;;4.43;3.07;;;25.30;99.90;;;;;;5077410;28;20446;-59
2021/07/27 08:16:59;;;;;;;3.77;3.17;;;25.30;99.90;;;;;;5071863;28;20442;-59
2021/07/27 08:19:26;;;;;;;4.23;3.60;;;25.20;99.90;;;;;;5070992;28;20472;-60
2021/07/27 08:21:53;;;;;;;3.70;3.40;;;25.70;99.90;;;;;;5071890;28;20443;-60
2021/07/27 08:24:20;;;;;;;4.13;3.50;;;26.00;99.90;;;;;;5071023;28;20513;-59
2021/07/27 08:26:49;;;;;;;3.73;3.43;;;26.20;99.90;;;;;;5073834;28;20532;-60
2021/07/27 08:29:16;;;;;;;2.97;2.77;;;26.90;99.90;;;;;;5072148;28;20528;-59
2021/07/27 08:31:44;;;;;;;3.50;3.10;;;27.70;99.90;;;;;;5072129;28;20450;-60
2021/07/27 08:34:16;;;;;;;4.37;3.00;;;27.90;99.90;;;;;;5071588;28;20524;-60
2021/07/27 08:36:43;;;;;;;3.40;3.00;;;27.60;99.90;;;;;;5071746;28;20509;-59
2021/07/27 08:39:10;;;;;;;3.83;3.03;;;27.40;99.90;;;;;;5071569;28;20458;-59
2021/07/27 08:41:39;;;;;;;3.47;3.20;;;27.80;99.90;;;;;;5071940;28;20455;-59
2021/07/27 08:44:17;;;;;;;4.00;3.70;;;27.70;99.90;;;;;;5071664;28;20466;-60
2021/07/27 08:46:45;;;;;;;3.20;3.00;;;27.80;99.90;;;;;;5071502;28;20489;-60
2021/07/27 08:49:15;;;;;;;4.03;3.13;;;28.30;99.90;;;;;;5071526;28;20500;-60
2021/07/27 08:51:44;;;;;;;4.93;3.60;;;28.90;99.90;;;;;;5070883;28;20504;-60
2021/07/27 08:54:12;;;;;;;4.87;3.53;;;29.00;99.90;;;;;;5070154;28;20490;-60
2021/07/27 08:56:45;;;;;;;4.70;3.37;;;29.30;99.90;;;;;;5070864;28;20877;-60
2021/07/27 08:59:14;;;;;;;3.83;3.50;;;29.10;99.90;;;;;;5071223;28;20550;-60
2021/07/27 09:01:41;;;;;;;5.03;2.93;;;29.20;99.90;;;;;;5070696;28;20443;-60
2021/07/27 09:04:08;;;;;;;3.83;3.50;;;29.40;99.90;;;;;;5070300;28;20474;-60
2021/07/27 09:06:35;;;;;;;3.47;3.17;;;29.80;99.90;;;;;;5071042;28;20482;-61
2021/07/27 09:09:06;;;;;;;3.50;3.20;;;30.00;99.90;;;;;;5070826;28;20470;-60
2021/07/27 09:11:33;;;;;;;3.43;3.13;;;30.10;99.90;;;;;;5070766;28;20454;-60
2021/07/27 09:14:00;;;;;;;3.47;2.90;;;30.00;99.90;;;;;;5070288;28;20559;-60
2021/07/27 09:16:29;;;;;;;3.63;3.10;;;29.40;99.90;;;;;;5069727;28;20491;-59
2021/07/27 09:18:59;;;;;;;3.40;3.00;;;29.10;99.90;;;;;;5070734;28;20208;-60
2021/07/27 09:21:27;;;;;;;5.63;3.07;;;28.80;99.90;;;;;;5074213;28;20482;-60
2021/07/27 09:23:55;;;;;;;4.63;4.23;;;28.50;99.90;;;;;;5070187;28;20883;-59
2021/07/27 09:26:22;;;;;;;6.83;3.53;;;29.20;99.90;;;;;;5070334;28;20573;-60
2021/07/27 09:28:49;;;;;;;3.60;3.30;;;29.70;99.90;;;;;;5071264;28;20537;-60
2021/07/27 09:31:28;;;;;;;3.40;3.20;;;30.00;99.90;;;;;;5071343;28;20497;-60
2021/07/27 09:33:55;;;;;;;7.57;2.93;;;30.30;99.90;;;;;;5071109;28;20532;-59
2021/07/27 09:36:26;;;;;;;4.10;3.80;;;29.90;99.90;;;;;;5071657;28;20451;-60
2021/07/27 09:39:02;;;;;;;3.40;3.10;;;30.40;99.90;;;;;;5071533;28;20478;-59
2021/07/27 09:41:30;;;;;;;3.67;3.40;;;30.50;99.90;;;;;;5071267;28;20446;-60
2021/07/27 09:43:57;;;;;;;3.03;2.83;;;30.40;99.90;;;;;;5071098;28;20558;-59
2021/07/27 09:46:25;;;;;;;3.77;3.47;;;30.70;99.90;;;;;;5071242;28;21086;-59
2021/07/27 09:48:54;;;;;;;3.50;3.20;;;31.00;99.90;;;;;;5071455;28;20539;-60
2021/07/27 09:51:21;;;;;;;5.37;3.53;;;30.90;99.90;;;;;;5071306;28;21101;-60
2021/07/27 09:53:50;;;;;;;4.47;3.10;;;31.00;99.90;;;;;;5070226;28;20478;-60
2021/07/27 09:56:17;;;;;;;3.57;3.27;;;30.20;99.90;;;;;;5071475;28;20443;-60
2021/07/27 09:58:44;;;;;;;4.67;4.00;;;30.40;99.90;;;;;;5071321;28;20500;-60
2021/07/27 10:01:15;;;;;;;3.83;3.53;;;29.70;99.90;;;;;;5071390;28;20480;-59
2021/07/27 10:03:53;;;;;;;3.90;3.60;;;29.80;99.90;;;;;;5070405;28;20474;-60
2021/07/27 10:06:25;;;;;;;3.67;3.30;;;29.30;99.90;;;;;;5071102;28;20571;-60
2021/07/27 10:08:56;;;;;;;4.27;3.63;;;29.60;99.90;;;;;;5071078;28;20940;-59
2021/07/27 10:11:36;;;;;;;5.43;3.90;;;30.00;99.90;;;;;;5071277;28;20496;-60
2021/07/27 10:14:08;;;;;;;3.87;3.57;;;30.40;99.90;;;;;;5070507;28;20558;-60
2021/07/27 10:16:36;;;;;;;4.10;3.80;;;29.90;99.90;;;;;;5071073;28;20536;-60
2021/07/27 10:19:16;;;;;;;3.73;3.43;;;29.30;99.90;;;;;;5070813;28;20538;-60
2021/07/27 10:21:46;;;;;;;4.03;3.63;;;29.40;99.90;;;;;;5071008;28;20454;-60
2021/07/27 10:24:17;;;;;;;7.20;6.50;;;29.30;99.90;;;;;;5072242;28;20856;-60
2021/07/27 10:26:45;;;;;;;4.73;4.17;;;29.40;99.90;;;;;;5054607;28;20436;-60
2021/07/27 10:29:13;;;;;;;3.93;3.57;;;29.70;99.90;;;;;;5054526;28;20448;-60
2021/07/27 10:31:41;;;;;;;4.30;3.90;;;29.20;99.90;;;;;;5054491;28;20454;-60
2021/07/27 10:34:09;;;;;;;4.47;3.73;;;28.80;99.90;;;;;;5061412;28;20470;-60
2021/07/27 10:36:38;;;;;;;4.17;3.77;;;29.30;99.90;;;;;;5074378;28;20482;-60
2021/07/27 10:39:15;;;;;;;4.70;4.30;;;29.70;99.90;;;;;;5073871;28;20447;-60
2021/07/27 10:41:44;;;;;;;5.13;3.70;;;29.60;99.90;;;;;;5074318;28;20500;-60
2021/07/27 10:44:35;;;;;;;5.40;4.20;;;29.50;99.90;;;;;;5073918;28;20540;-60
2021/07/27 10:47:02;;;;;;;3.40;3.20;;;29.70;99.90;;;;;;5073444;28;20451;-61
2021/07/27 10:49:30;;;;;;;3.80;3.50;;;30.30;99.90;;;;;;5070856;28;20524;-58
2021/07/27 10:52:01;;;;;;;3.60;3.30;;;30.20;99.90;;;;;;5073283;28;20455;-60
2021/07/27 10:54:31;;;;;;;4.03;3.73;;;30.40;99.90;;;;;;5074514;28;20800;-60
2021/07/27 10:57:03;;;;;;;4.20;3.80;;;30.50;99.90;;;;;;5073654;28;20478;-60
2021/07/27 10:59:31;;;;;;;3.87;3.50;;;30.30;99.90;;;;;;5073866;28;20446;-60
2021/07/27 11:01:59;;;;;;;3.87;3.57;;;29.80;99.90;;;;;;5073191;28;20481;-62
2021/07/27 11:04:30;;;;;;;4.17;3.80;;;30.00;99.90;;;;;;5073426;28;20978;-61
2021/07/27 11:07:11;;;;;;;4.03;3.73;;;29.80;99.90;;;;;;5072632;28;20447;-61
2021/07/27 11:09:50;;;;;;;4.03;3.63;;;29.30;99.90;;;;;;5073686;28;20442;-62
2021/07/27 11:12:28;;;;;;;3.70;3.40;;;29.50;99.90;;;;;;5073092;28;20474;-61
2021/07/27 11:15:12;;;;;;;4.30;3.90;;;29.80;99.90;;;;;;5073196;28;20446;-61
2021/07/27 11:17:43;;;;;;;4.40;4.00;;;30.00;99.90;;;;;;5073375;28;21026;-61
2021/07/27 11:20:12;;;;;;;4.53;4.10;;;29.80;99.90;;;;;;5073282;28;20932;-63
2021/07/27 11:22:43;;;;;;;4.80;4.10;;;29.80;99.90;;;;;;5073374;28;20528;-61
2021/07/27 11:25:13;;;;;;;4.70;4.30;;;29.20;99.90;;;;;;5073207;28;20455;-61
2021/07/27 11:27:40;;;;;;;5.00;4.60;;;29.00;99.90;;;;;;5072120;28;20449;-62
2021/07/27 11:30:09;;;;;;;4.50;4.10;;;28.80;99.90;;;;;;5073295;28;20450;-62
2021/07/27 11:32:44;;;;;;;4.73;4.33;;;29.20;99.90;;;;;;5072886;28;20466;-61
2021/07/27 11:35:12;;;;;;;4.40;4.00;;;29.10;99.90;;;;;;5072505;28;20947;-61
2021/07/27 11:37:40;;;;;;;4.07;3.70;;;29.30;99.90;;;;;;5072692;28;20547;-61
2021/07/27 11:40:08;;;;;;;5.50;5.00;;;29.40;99.90;;;;;;5072874;28;20906;-62
2021/07/27 11:42:39;;;;;;;4.97;4.47;;;29.20;99.90;;;;;;5072467;28;20467;-62
2021/07/27 11:45:07;;;;;;;4.87;4.10;;;28.70;99.90;;;;;;5072468;28;20443;-61
2021/07/27 11:47:44;;;;;;;4.60;4.20;;;28.70;99.90;;;;;;5072760;28;20499;-62
2021/07/27 11:50:15;;;;;;;4.70;3.93;;;28.50;99.90;;;;;;5072750;28;20481;-61
2021/07/27 11:52:42;;;;;;;4.63;4.30;;;27.90;99.90;;;;;;5071599;28;20486;-61
2021/07/27 11:55:11;;;;;;;4.47;3.90;;;28.20;99.90;;;;;;5072240;28;21027;-62
2021/07/27 11:57:51;;;;;;;5.40;4.90;;;28.60;99.90;;;;;;5072576;28;20482;-61
2021/07/27 12:00:19;;;;;;;5.60;4.63;;;28.80;99.90;;;;;;5072859;28;20541;-62
2021/07/27 12:02:46;;;;;;;5.27;4.77;;;28.90;99.90;;;;;;5071892;28;20479;-61
2021/07/27 12:05:14;;;;;;;5.03;3.90;;;28.80;99.90;;;;;;5071912;28;20971;-62
2021/07/27 12:07:41;;;;;;;4.83;4.17;;;28.70;99.90;;;;;;5071634;28;20940;-64
2021/07/27 12:10:09;;;;;;;4.17;3.87;;;28.80;99.90;;;;;;5071213;28;20512;-62
2021/07/27 12:12:37;;;;;;;4.70;4.30;;;28.80;99.90;;;;;;5071695;28;20475;-62
2021/07/27 12:15:07;;;;;;;4.43;4.03;;;28.60;99.90;;;;;;5072166;28;20450;-62
2021/07/27 12:17:34;;;;;;;4.50;4.10;;;28.80;99.90;;;;;;5072062;28;20555;-62
2021/07/27 12:20:01;;;;;;;4.67;3.83;;;29.10;99.90;;;;;;5072318;28;20447;-61
2021/07/27 12:22:28;;;;;;;3.93;3.63;;;29.00;99.90;;;;;;5071783;28;20942;-62
2021/07/27 12:24:55;;;;;;;4.10;3.70;;;29.10;99.90;;;;;;5071759;28;20461;-62
2021/07/27 12:27:23;;;;;;;3.37;3.13;;;29.00;99.90;;;;;;5072193;28;20442;-62
2021/07/27 12:29:49;;;;;;;5.70;3.73;;;29.00;99.90;;;;;;5071674;28;20450;-62
2021/07/27 12:32:18;;;;;;;4.70;4.30;;;29.10;99.90;;;;;;5063189;28;20474;-62
2021/07/27 12:34:45;;;;;;;5.50;5.00;;;28.70;99.90;;;;;;5070867;28;20508;-61
2021/07/27 12:37:12;;;;;;;4.93;4.53;;;27.40;99.90;;;;;;5070800;28;20482;-62
2021/07/27 12:39:39;;;;;;;6.50;4.70;;;27.10;99.90;;;;;;5074690;28;20466;-61
2021/07/27 12:42:06;;;;;;;6.67;4.50;;;26.70;99.90;;;;;;5091991;28;20442;-62
2021/07/27 12:44:33;;;;;;;5.40;4.67;;;26.50;99.90;;;;;;5079229;28;20447;-61
2021/07/27 12:47:00;;;;;;;6.20;4.40;;;26.40;99.90;;;;;;5071052;28;20508;-62
2021/07/27 12:49:28;;;;;;;5.17;4.67;;;26.30;99.90;;;;;;5071498;28;20945;-61
2021/07/27 12:51:56;;;;;;;5.90;4.23;;;26.60;99.90;;;;;;5071212;28;20442;-61
2021/07/27 12:54:23;;;;;;;5.00;4.50;;;26.90;99.90;;;;;;5071614;28;20446;-61
2021/07/27 12:56:50;;;;;;;5.73;4.43;;;27.10;99.90;;;;;;5071685;28;20479;-61
2021/07/27 12:59:18;;;;;;;6.10;4.03;;;27.20;99.90;;;;;;5071582;28;20454;-61
2021/07/27 13:01:45;;;;;;;8.40;4.30;;;27.30;99.90;;;;;;5071589;28;20473;-61
2021/07/27 13:04:12;;;;;;;5.10;4.13;;;26.70;99.90;;;;;;5070972;28;20471;-61
2021/07/27 13:06:42;;;;;;;4.87;4.37;;;26.60;99.90;;;;;;5071220;28;20971;-61
2021/07/27 13:09:09;;;;;;;5.50;4.80;;;26.70;99.90;;;;;;5071496;28;20457;-63
2021/07/27 13:11:36;;;;;;;7.70;5.50;;;26.80;99.90;;;;;;5071561;28;20455;-61
2021/07/27 13:14:03;;;;;;;7.67;5.00;;;26.60;99.90;;;;;;5071291;28;20466;-62